x

St-athan (03716) Weather Station

12:00pm - Wed 1st Apr 2015 All times are BST. 1 hours from GMT.

  • Wind
    21mph, 31mph gusts
  • Air Temp 48°f
  • Sea Pressure 1027mb
  • St-athan
  • St-athan

More Historic Weather Station data

Upgrade to MSW Pro to gain access to the past 30 days of data for over 8000 Wavebouys and Weather Stations around the globe.

Join Pro

Comparision Forecast

View Surf forecast
   
Wed 04/01 12:00pm 21 31 mph 1027mb 48f
11:00am 21 31 mph 1027mb 47f
10:00am 17
mph
1027mb 46f
9:00am 15
mph
1027mb 45f
8:00am 13
mph
1026mb 43f
7:00am 13
mph
1026mb 42f
6:00am 17 31 mph 1025mb 42f
5:00am 19 33 mph 1025mb 42f
4:00am 24 36 mph 1024mb 42f
3:00am 23 32 mph 1024mb 42f
2:00am 22 37 mph 1024mb 43f
1:00am 17 37 mph 1023mb 42f
12:00am 25 34 mph 1022mb 44f
Tue 03/31 11:00pm 17 33 mph 1022mb 44f
10:00pm 17 30 mph 1021mb 44f
9:00pm 19 40 mph 1020mb 46f
8:00pm 19 37 mph 1019mb 47f
7:00pm 24 38 mph 1018mb 47f
6:00pm 24 38 mph 1017mb 48f
5:00pm 26 40 mph 1017mb 50f
4:00pm 28 40 mph 1016mb 50f
3:00pm 28 40 mph 1016mb 50f
2:00pm 28 38 mph 1015mb 51f
1:00pm 21 34 mph 1015mb 49f
12:00pm 22 37 mph 1014mb 50f
11:00am 22 33 mph 1013mb 49f
10:00am 22 40 mph 1012mb 48f
9:00am 25 39 mph 1010mb 48f
8:00am 26 43 mph 1007mb 48f
7:00am 26 43 mph 1005mb 48f
6:00am 28 45 mph 1004mb 48f
5:00am 30 48 mph 1003mb 48f
4:00am 28 48 mph 1002mb 49f
3:00am 34 55 mph 1001mb 50f
2:00am 34 49 mph 1001mb 50f
1:00am 31 48 mph 1001mb 50f
12:00am 34 47 mph 1001mb 50f
Mon 03/30 11:00pm 32 47 mph 1002mb 49f
10:00pm 30 43 mph 1003mb 49f
9:00pm 28 43 mph 1004mb 50f
8:00pm 31 43 mph 1004mb 51f
7:00pm 28 40 mph 1004mb 51f
6:00pm 22 29 mph 1006mb 51f
5:00pm 10
mph
1007mb 48f
4:00pm 17
mph
1009mb 48f
3:00pm 15
mph
1011mb 49f
2:00pm 13
mph
1012mb 48f
1:00pm 14
mph
1013mb 48f
12:00pm 17
mph
1013mb 49f
11:00am 15
mph
1012mb 48f
10:00am 17
mph
1012mb 46f
9:00am 17
mph
1011mb 46f
8:00am 16
mph
1011mb 44f
7:00am 18
mph
1009mb 44f
6:00am 21 31 mph 1008mb 45f
5:00am 19 31 mph 1007mb 45f
4:00am 19 30 mph 1006mb 44f
3:00am 22 30 mph 1006mb 45f
2:00am 21 32 mph 1005mb 45f
1:00am 21 33 mph 1004mb 46f
12:00am 22 36 mph 1003mb 47f
Sun 03/29 11:00pm 22 34 mph 1002mb 47f
10:00pm 25 38 mph 1001mb 48f
9:00pm 21 33 mph 1001mb 48f
8:00pm 22 36 mph 1001mb 48f
7:00pm 23 37 mph 1001mb 48f
6:00pm 28 39 mph 1000mb 49f
5:00pm 24 37 mph 1000mb 49f
4:00pm 24 39 mph 999mb 49f
3:00pm 26 45 mph 999mb 51f
2:00pm 32 49 mph 998mb 51f
1:00pm 31 49 mph 997mb 51f
12:00pm 33 53 mph 997mb 50f
11:00am 33 49 mph 998mb 51f
10:00am 31 47 mph 999mb 50f
9:00am 31 46 mph 1000mb 50f
8:00am 31 45 mph 1000mb 50f
7:00am 26 40 mph 1001mb 49f
6:00am 14 32 mph 1003mb 48f
5:00am 19 40 mph 1004mb 48f
4:00am 24 41 mph 1004mb 48f
3:00am 28 45 mph 1005mb 48f
2:00am 31 46 mph 1005mb 49f
1:00am 36 48 mph 1005mb 49f
12:00am 32 46 mph 1006mb 49f
Sat 03/28 11:00pm 29 45 mph 1007mb 48f
10:00pm 28 47 mph 1007mb 48f
9:00pm 29 46 mph 1008mb 48f
8:00pm 30 43 mph 1007mb 49f
7:00pm 28 44 mph 1007mb 49f
6:00pm 32 46 mph 1006mb 50f
5:00pm 29 44 mph 1006mb 51f
4:00pm 30 44 mph 1007mb 52f
3:00pm 29 39 mph 1008mb 52f
2:00pm 23 36 mph 1009mb 51f
1:00pm 24 33 mph 1009mb 52f